sensor_id;sensor_type;location;lat;lon;timestamp;pressure;altitude;pressure_sealevel;temperature;humidity
10079;BME280;5078;42.544;22.966;2022-10-23T00:00:35;94435.34;;;12.52;84.13
10079;BME280;5078;42.544;22.966;2022-10-23T00:03:04;94427.84;;;12.56;83.78
10079;BME280;5078;42.544;22.966;2022-10-23T00:05:31;94431.19;;;12.50;84.04
10079;BME280;5078;42.544;22.966;2022-10-23T00:07:58;94430.22;;;12.51;84.33
10079;BME280;5078;42.544;22.966;2022-10-23T00:10:26;94438.50;;;12.48;84.77
10079;BME280;5078;42.544;22.966;2022-10-23T00:12:53;94443.56;;;12.35;86.32
10079;BME280;5078;42.544;22.966;2022-10-23T00:15:21;94438.03;;;12.44;86.00
10079;BME280;5078;42.544;22.966;2022-10-23T00:17:52;94434.72;;;12.42;86.44
10079;BME280;5078;42.544;22.966;2022-10-23T00:20:20;94428.22;;;12.45;86.30
10079;BME280;5078;42.544;22.966;2022-10-23T00:22:47;94436.19;;;12.53;86.32
10079;BME280;5078;42.544;22.966;2022-10-23T00:25:13;94437.19;;;12.52;86.46
10079;BME280;5078;42.544;22.966;2022-10-23T00:27:41;94432.72;;;12.44;87.17
10079;BME280;5078;42.544;22.966;2022-10-23T00:30:08;94433.91;;;12.42;87.16
10079;BME280;5078;42.544;22.966;2022-10-23T00:32:35;94431.38;;;12.09;88.43
10079;BME280;5078;42.544;22.966;2022-10-23T00:35:03;94441.91;;;12.34;88.90
10079;BME280;5078;42.544;22.966;2022-10-23T00:37:31;94439.41;;;12.32;89.01
10079;BME280;5078;42.544;22.966;2022-10-23T00:39:58;94455.22;;;12.25;90.01
10079;BME280;5078;42.544;22.966;2022-10-23T00:42:25;94457.47;;;11.97;91.86
10079;BME280;5078;42.544;22.966;2022-10-23T00:45:12;94454.28;;;12.10;91.65
10079;BME280;5078;42.544;22.966;2022-10-23T00:47:39;94453.00;;;11.81;94.47
10079;BME280;5078;42.544;22.966;2022-10-23T00:50:07;94443.53;;;11.79;95.08
10079;BME280;5078;42.544;22.966;2022-10-23T00:52:44;94456.66;;;11.15;99.98
10079;BME280;5078;42.544;22.966;2022-10-23T00:55:11;94438.75;;;11.25;100.00
10079;BME280;5078;42.544;22.966;2022-10-23T00:57:41;94461.97;;;11.23;100.00
10079;BME280;5078;42.544;22.966;2022-10-23T01:00:14;94455.13;;;10.79;100.00
10079;BME280;5078;42.544;22.966;2022-10-23T01:02:41;94466.94;;;10.93;100.00
10079;BME280;5078;42.544;22.966;2022-10-23T01:05:08;94474.91;;;11.10;100.00
10079;BME280;5078;42.544;22.966;2022-10-23T01:07:42;94467.22;;;10.82;100.00
10079;BME280;5078;42.544;22.966;2022-10-23T01:10:14;94470.41;;;10.94;100.00
10079;BME280;5078;42.544;22.966;2022-10-23T01:12:45;94482.78;;;10.69;100.00
10079;BME280;5078;42.544;22.966;2022-10-23T01:15:24;94474.69;;;10.95;100.00
10079;BME280;5078;42.544;22.966;2022-10-23T01:17:56;94469.94;;;11.15;100.00
10079;BME280;5078;42.544;22.966;2022-10-23T01:20:34;94470.38;;;10.86;100.00
10079;BME280;5078;42.544;22.966;2022-10-23T01:29:07;94475.03;;;10.84;100.00
10079;BME280;5078;42.544;22.966;2022-10-23T01:31:38;94478.16;;;10.87;100.00
10079;BME280;5078;42.544;22.966;2022-10-23T01:34:12;94482.66;;;10.95;100.00
10079;BME280;5078;42.544;22.966;2022-10-23T01:36:41;94474.75;;;11.11;100.00
10079;BME280;5078;42.544;22.966;2022-10-23T01:39:11;94468.63;;;11.19;100.00
10079;BME280;5078;42.544;22.966;2022-10-23T01:41:44;94467.59;;;11.28;100.00
10079;BME280;5078;42.544;22.966;2022-10-23T01:44:17;94470.09;;;11.30;100.00
10079;BME280;5078;42.544;22.966;2022-10-23T01:46:51;94482.88;;;11.18;100.00
10079;BME280;5078;42.544;22.966;2022-10-23T01:49:19;94470.22;;;10.87;100.00
10079;BME280;5078;42.544;22.966;2022-10-23T01:51:50;94493.63;;;11.08;100.00
10079;BME280;5078;42.544;22.966;2022-10-23T01:54:19;94483.19;;;11.23;100.00
10079;BME280;5078;42.544;22.966;2022-10-23T01:56:50;94471.09;;;11.12;100.00
10079;BME280;5078;42.544;22.966;2022-10-23T01:59:21;94471.09;;;11.12;100.00
10079;BME280;5078;42.544;22.966;2022-10-23T02:01:52;94471.91;;;11.13;100.00
10079;BME280;5078;42.544;22.966;2022-10-23T02:04:23;94478.22;;;11.12;100.00
10079;BME280;5078;42.544;22.966;2022-10-23T02:06:52;94481.22;;;11.17;100.00
10079;BME280;5078;42.544;22.966;2022-10-23T02:09:19;94472.75;;;11.21;100.00
10079;BME280;5078;42.544;22.966;2022-10-23T02:11:54;94479.38;;;11.09;100.00
10079;BME280;5078;42.544;22.966;2022-10-23T02:14:33;94475.56;;;11.12;100.00
10079;BME280;5078;42.544;22.966;2022-10-23T02:17:07;94475.19;;;10.90;100.00
10079;BME280;5078;42.544;22.966;2022-10-23T02:19:52;94476.09;;;11.23;100.00
10079;BME280;5078;42.544;22.966;2022-10-23T02:22:24;94468.59;;;11.27;100.00
10079;BME280;5078;42.544;22.966;2022-10-23T02:24:56;94466.97;;;11.34;100.00
10079;BME280;5078;42.544;22.966;2022-10-23T02:27:29;94461.66;;;11.51;99.81
10079;BME280;5078;42.544;22.966;2022-10-23T02:30:04;94472.25;;;11.67;98.68
10079;BME280;5078;42.544;22.966;2022-10-23T02:32:33;94478.25;;;11.69;98.16
10079;BME280;5078;42.544;22.966;2022-10-23T02:35:01;94489.50;;;11.30;100.00
10079;BME280;5078;42.544;22.966;2022-10-23T02:37:27;94486.88;;;11.47;100.00
10079;BME280;5078;42.544;22.966;2022-10-23T02:39:54;94479.09;;;11.61;99.88
10079;BME280;5078;42.544;22.966;2022-10-23T02:42:25;94485.72;;;11.49;100.00
10079;BME280;5078;42.544;22.966;2022-10-23T02:45:04;94482.06;;;11.42;100.00
10079;BME280;5078;42.544;22.966;2022-10-23T02:47:39;94482.53;;;11.45;100.00
10079;BME280;5078;42.544;22.966;2022-10-23T02:50:19;94483.22;;;11.31;100.00
10079;BME280;5078;42.544;22.966;2022-10-23T02:52:58;94478.25;;;11.44;100.00
10079;BME280;5078;42.544;22.966;2022-10-23T02:55:38;94482.72;;;11.60;100.00
10079;BME280;5078;42.544;22.966;2022-10-23T02:58:15;94481.88;;;11.68;100.00
10079;BME280;5078;42.544;22.966;2022-10-23T03:00:53;94489.03;;;11.51;100.00
10079;BME280;5078;42.544;22.966;2022-10-23T03:03:25;94475.94;;;11.41;100.00
10079;BME280;5078;42.544;22.966;2022-10-23T03:05:52;94489.69;;;11.45;100.00
10079;BME280;5078;42.544;22.966;2022-10-23T03:08:19;94490.53;;;11.54;100.00
10079;BME280;5078;42.544;22.966;2022-10-23T03:10:46;94493.50;;;11.34;100.00
10079;BME280;5078;42.544;22.966;2022-10-23T03:13:13;94497.50;;;11.38;100.00
10079;BME280;5078;42.544;22.966;2022-10-23T03:15:40;94500.50;;;11.43;100.00
10079;BME280;5078;42.544;22.966;2022-10-23T03:18:08;94478.63;;;10.74;100.00
10079;BME280;5078;42.544;22.966;2022-10-23T03:20:35;94494.41;;;10.84;100.00
10079;BME280;5078;42.544;22.966;2022-10-23T03:23:01;94506.06;;;10.91;100.00
10079;BME280;5078;42.544;22.966;2022-10-23T03:25:28;94499.41;;;10.95;100.00
10079;BME280;5078;42.544;22.966;2022-10-23T03:27:55;94510.03;;;10.95;100.00
10079;BME280;5078;42.544;22.966;2022-10-23T03:30:22;94509.88;;;11.05;100.00
10079;BME280;5078;42.544;22.966;2022-10-23T03:32:48;94516.88;;;11.06;100.00
10079;BME280;5078;42.544;22.966;2022-10-23T03:35:20;94524.63;;;10.91;100.00
10079;BME280;5078;42.544;22.966;2022-10-23T03:37:47;94523.28;;;10.95;100.00
10079;BME280;5078;42.544;22.966;2022-10-23T03:40:14;94536.00;;;10.75;100.00
10079;BME280;5078;42.544;22.966;2022-10-23T03:42:40;94524.56;;;10.41;100.00
10079;BME280;5078;42.544;22.966;2022-10-23T03:45:08;94543.13;;;10.41;100.00
10079;BME280;5078;42.544;22.966;2022-10-23T03:47:34;94543.22;;;10.57;100.00
10079;BME280;5078;42.544;22.966;2022-10-23T03:50:06;94541.75;;;10.63;100.00
10079;BME280;5078;42.544;22.966;2022-10-23T03:52:35;94541.84;;;10.53;100.00
10079;BME280;5078;42.544;22.966;2022-10-23T03:55:02;94537.97;;;10.13;100.00
10079;BME280;5078;42.544;22.966;2022-10-23T03:57:29;94539.19;;;10.19;100.00
10079;BME280;5078;42.544;22.966;2022-10-23T03:59:56;94546.09;;;9.67;100.00
10079;BME280;5078;42.544;22.966;2022-10-23T04:02:23;94545.56;;;9.82;100.00
10079;BME280;5078;42.544;22.966;2022-10-23T04:04:49;94536.97;;;9.88;100.00
10079;BME280;5078;42.544;22.966;2022-10-23T04:07:16;94542.13;;;9.89;100.00
10079;BME280;5078;42.544;22.966;2022-10-23T04:09:47;94537.44;;;9.83;100.00
10079;BME280;5078;42.544;22.966;2022-10-23T04:12:14;94541.41;;;10.05;100.00
10079;BME280;5078;42.544;22.966;2022-10-23T04:14:40;94544.88;;;9.80;100.00
10079;BME280;5078;42.544;22.966;2022-10-23T04:17:07;94546.44;;;9.90;100.00
10079;BME280;5078;42.544;22.966;2022-10-23T04:19:34;94538.22;;;9.76;100.00
10079;BME280;5078;42.544;22.966;2022-10-23T04:22:01;94546.09;;;9.67;100.00
10079;BME280;5078;42.544;22.966;2022-10-23T04:24:28;94542.31;;;9.70;100.00
10079;BME280;5078;42.544;22.966;2022-10-23T04:26:56;94540.81;;;9.67;100.00
10079;BME280;5078;42.544;22.966;2022-10-23T04:29:22;94547.66;;;9.78;100.00
10079;BME280;5078;42.544;22.966;2022-10-23T04:31:49;94550.53;;;9.85;100.00
10079;BME280;5078;42.544;22.966;2022-10-23T04:34:20;94541.25;;;9.63;100.00
10079;BME280;5078;42.544;22.966;2022-10-23T04:36:47;94560.75;;;9.80;100.00
10079;BME280;5078;42.544;22.966;2022-10-23T04:39:14;94566.47;;;9.93;100.00
10079;BME280;5078;42.544;22.966;2022-10-23T04:41:41;94571.09;;;10.09;100.00
10079;BME280;5078;42.544;22.966;2022-10-23T04:44:09;94563.41;;;10.24;100.00
10079;BME280;5078;42.544;22.966;2022-10-23T04:46:36;94570.41;;;10.33;100.00
10079;BME280;5078;42.544;22.966;2022-10-23T04:49:03;94574.44;;;10.37;100.00
10079;BME280;5078;42.544;22.966;2022-10-23T04:51:30;94573.47;;;10.20;100.00
10079;BME280;5078;42.544;22.966;2022-10-23T04:53:56;94571.19;;;9.99;100.00
10079;BME280;5078;42.544;22.966;2022-10-23T04:56:23;94568.94;;;10.12;100.00
10079;BME280;5078;42.544;22.966;2022-10-23T04:58:54;94569.97;;;9.93;100.00
10079;BME280;5078;42.544;22.966;2022-10-23T05:01:22;94571.41;;;9.88;100.00
10079;BME280;5078;42.544;22.966;2022-10-23T05:03:49;94578.59;;;9.96;100.00
10079;BME280;5078;42.544;22.966;2022-10-23T05:06:15;94576.78;;;9.78;100.00
10079;BME280;5078;42.544;22.966;2022-10-23T05:08:42;94575.59;;;9.72;100.00
10079;BME280;5078;42.544;22.966;2022-10-23T05:11:09;94576.38;;;9.47;100.00
10079;BME280;5078;42.544;22.966;2022-10-23T05:13:35;94584.13;;;9.13;100.00
10079;BME280;5078;42.544;22.966;2022-10-23T05:16:02;94589.22;;;9.42;100.00
10079;BME280;5078;42.544;22.966;2022-10-23T05:18:34;94586.34;;;9.53;100.00
10079;BME280;5078;42.544;22.966;2022-10-23T05:21:05;94582.03;;;9.52;100.00
10079;BME280;5078;42.544;22.966;2022-10-23T05:23:35;94602.69;;;9.66;100.00
10079;BME280;5078;42.544;22.966;2022-10-23T05:26:03;94596.69;;;9.82;100.00
10079;BME280;5078;42.544;22.966;2022-10-23T05:28:38;94618.59;;;10.10;100.00
10079;BME280;5078;42.544;22.966;2022-10-23T05:31:05;94609.81;;;10.28;100.00
10079;BME280;5078;42.544;22.966;2022-10-23T05:33:34;94607.19;;;10.54;100.00
10079;BME280;5078;42.544;22.966;2022-10-23T05:36:06;94614.84;;;10.65;100.00
10079;BME280;5078;42.544;22.966;2022-10-23T05:38:34;94624.16;;;11.04;100.00
10079;BME280;5078;42.544;22.966;2022-10-23T05:41:01;94615.91;;;11.23;100.00
10079;BME280;5078;42.544;22.966;2022-10-23T05:43:28;94617.28;;;11.35;99.40
10079;BME280;5078;42.544;22.966;2022-10-23T05:45:56;94612.84;;;11.36;98.06
10079;BME280;5078;42.544;22.966;2022-10-23T05:48:23;94615.97;;;11.39;97.29
10079;BME280;5078;42.544;22.966;2022-10-23T05:50:51;94627.97;;;11.68;96.00
10079;BME280;5078;42.544;22.966;2022-10-23T05:53:18;94638.97;;;11.81;95.25
10079;BME280;5078;42.544;22.966;2022-10-23T05:55:45;94640.63;;;11.82;94.67
10079;BME280;5078;42.544;22.966;2022-10-23T05:58:12;94652.16;;;12.16;93.49
10079;BME280;5078;42.544;22.966;2022-10-23T06:00:40;94652.66;;;12.27;91.91
10079;BME280;5078;42.544;22.966;2022-10-23T06:03:06;94656.31;;;12.35;90.76
10079;BME280;5078;42.544;22.966;2022-10-23T06:05:33;94661.28;;;12.38;90.22
10079;BME280;5078;42.544;22.966;2022-10-23T06:08:01;94663.09;;;12.45;89.61
10079;BME280;5078;42.544;22.966;2022-10-23T06:10:30;94652.50;;;12.29;91.32
10079;BME280;5078;42.544;22.966;2022-10-23T06:12:57;94664.09;;;12.20;90.32
10079;BME280;5078;42.544;22.966;2022-10-23T06:15:23;94662.94;;;12.47;89.70
10079;BME280;5078;42.544;22.966;2022-10-23T06:17:52;94668.06;;;12.65;88.72
10079;BME280;5078;42.544;22.966;2022-10-23T06:20:19;94665.72;;;12.86;86.49
10079;BME280;5078;42.544;22.966;2022-10-23T06:22:45;94657.72;;;12.94;86.49
10079;BME280;5078;42.544;22.966;2022-10-23T06:25:14;94661.75;;;13.38;83.38
10079;BME280;5078;42.544;22.966;2022-10-23T06:27:40;94670.78;;;13.60;81.33
10079;BME280;5078;42.544;22.966;2022-10-23T06:30:08;94672.44;;;13.92;78.60
10079;BME280;5078;42.544;22.966;2022-10-23T06:32:35;94668.84;;;14.31;76.96
10079;BME280;5078;42.544;22.966;2022-10-23T06:35:02;94675.91;;;14.24;75.54
10079;BME280;5078;42.544;22.966;2022-10-23T06:37:29;94671.38;;;14.48;74.99
10079;BME280;5078;42.544;22.966;2022-10-23T06:39:56;94684.59;;;15.17;70.56
10079;BME280;5078;42.544;22.966;2022-10-23T06:42:30;94680.63;;;15.27;69.11
10079;BME280;5078;42.544;22.966;2022-10-23T06:44:58;94677.06;;;15.20;68.05
10079;BME280;5078;42.544;22.966;2022-10-23T06:47:25;94680.94;;;15.32;67.68
10079;BME280;5078;42.544;22.966;2022-10-23T06:49:51;94683.41;;;15.79;64.74
10079;BME280;5078;42.544;22.966;2022-10-23T06:52:18;94695.00;;;16.22;64.44
10079;BME280;5078;42.544;22.966;2022-10-23T06:54:45;94688.91;;;16.28;62.46
10079;BME280;5078;42.544;22.966;2022-10-23T06:57:12;94702.66;;;16.25;62.46
10079;BME280;5078;42.544;22.966;2022-10-23T06:59:40;94701.91;;;16.53;61.09
10079;BME280;5078;42.544;22.966;2022-10-23T07:02:08;94695.22;;;16.85;60.87
10079;BME280;5078;42.544;22.966;2022-10-23T07:04:35;94700.91;;;17.03;60.17
10079;BME280;5078;42.544;22.966;2022-10-23T07:07:04;94699.00;;;17.25;59.52
10079;BME280;5078;42.544;22.966;2022-10-23T07:09:31;94698.09;;;17.46;57.43
10079;BME280;5078;42.544;22.966;2022-10-23T07:11:58;94699.53;;;17.84;56.61
10079;BME280;5078;42.544;22.966;2022-10-23T07:14:28;94697.38;;;18.14;54.20
10079;BME280;5078;42.544;22.966;2022-10-23T07:16:58;94696.16;;;18.10;53.92
10079;BME280;5078;42.544;22.966;2022-10-23T07:19:25;94692.53;;;18.51;52.80
10079;BME280;5078;42.544;22.966;2022-10-23T07:21:52;94695.84;;;18.53;51.28
10079;BME280;5078;42.544;22.966;2022-10-23T07:24:18;94688.38;;;18.42;52.84
10079;BME280;5078;42.544;22.966;2022-10-23T07:26:45;94691.16;;;18.00;54.38
10079;BME280;5078;42.544;22.966;2022-10-23T07:29:12;94690.13;;;18.01;55.02
10079;BME280;5078;42.544;22.966;2022-10-23T07:31:39;94683.59;;;18.17;53.74
10079;BME280;5078;42.544;22.966;2022-10-23T07:34:08;94682.03;;;18.76;51.47
10079;BME280;5078;42.544;22.966;2022-10-23T07:36:35;94681.59;;;19.26;50.04
10079;BME280;5078;42.544;22.966;2022-10-23T07:39:02;94674.13;;;19.48;48.85
10079;BME280;5078;42.544;22.966;2022-10-23T07:41:28;94682.34;;;19.73;48.92
10079;BME280;5078;42.544;22.966;2022-10-23T07:43:55;94684.19;;;19.79;48.09
10079;BME280;5078;42.544;22.966;2022-10-23T07:46:22;94676.53;;;20.28;48.10
10079;BME280;5078;42.544;22.966;2022-10-23T07:48:48;94683.41;;;20.62;46.91
10079;BME280;5078;42.544;22.966;2022-10-23T07:51:17;94681.31;;;20.89;45.92
10079;BME280;5078;42.544;22.966;2022-10-23T07:53:43;94670.47;;;21.21;45.72
10079;BME280;5078;42.544;22.966;2022-10-23T07:56:13;94665.03;;;21.27;45.64
10079;BME280;5078;42.544;22.966;2022-10-23T07:58:40;94668.22;;;21.61;44.97
10079;BME280;5078;42.544;22.966;2022-10-23T08:01:14;94662.22;;;21.96;44.24
10079;BME280;5078;42.544;22.966;2022-10-23T08:03:41;94655.97;;;22.14;44.09
10079;BME280;5078;42.544;22.966;2022-10-23T08:06:08;94651.59;;;21.83;44.83
10079;BME280;5078;42.544;22.966;2022-10-23T08:08:36;94659.09;;;21.81;45.57
10079;BME280;5078;42.544;22.966;2022-10-23T08:11:03;94650.81;;;22.12;44.70
10079;BME280;5078;42.544;22.966;2022-10-23T08:13:29;94644.09;;;22.33;44.23
10079;BME280;5078;42.544;22.966;2022-10-23T08:15:56;94647.00;;;22.50;44.17
10079;BME280;5078;42.544;22.966;2022-10-23T08:18:23;94641.16;;;22.65;44.07
10079;BME280;5078;42.544;22.966;2022-10-23T08:20:50;94638.75;;;22.45;44.69
10079;BME280;5078;42.544;22.966;2022-10-23T08:23:18;94638.06;;;22.20;45.07
10079;BME280;5078;42.544;22.966;2022-10-23T08:25:46;94633.16;;;22.70;43.87
10079;BME280;5078;42.544;22.966;2022-10-23T08:28:13;94633.06;;;22.35;44.42
10079;BME280;5078;42.544;22.966;2022-10-23T08:30:40;94642.22;;;21.85;44.51
10079;BME280;5078;42.544;22.966;2022-10-23T08:33:08;94642.22;;;21.23;46.21
10079;BME280;5078;42.544;22.966;2022-10-23T08:35:35;94647.00;;;21.03;46.77
10079;BME280;5078;42.544;22.966;2022-10-23T08:38:02;94632.41;;;21.29;47.22
10079;BME280;5078;42.544;22.966;2022-10-23T08:40:29;94648.47;;;20.99;48.08
10079;BME280;5078;42.544;22.966;2022-10-23T08:43:03;94646.66;;;21.18;46.65
10079;BME280;5078;42.544;22.966;2022-10-23T08:45:36;94641.25;;;21.43;46.06
10079;BME280;5078;42.544;22.966;2022-10-23T08:48:12;94648.44;;;22.04;44.88
10079;BME280;5078;42.544;22.966;2022-10-23T08:50:46;94647.19;;;22.37;43.46
10079;BME280;5078;42.544;22.966;2022-10-23T08:53:19;94644.09;;;22.33;43.63
10079;BME280;5078;42.544;22.966;2022-10-23T08:55:56;94645.16;;;22.63;43.37
10079;BME280;5078;42.544;22.966;2022-10-23T08:58:34;94629.19;;;22.73;43.02
10079;BME280;5078;42.544;22.966;2022-10-23T09:01:29;94647.34;;;22.54;43.74
10079;BME280;5078;42.544;22.966;2022-10-23T09:03:58;94639.81;;;22.44;44.23
10079;BME280;5078;42.544;22.966;2022-10-23T09:06:32;94642.00;;;22.77;43.11
10079;BME280;5078;42.544;22.966;2022-10-23T09:09:14;94632.88;;;23.14;43.07
10079;BME280;5078;42.544;22.966;2022-10-23T09:11:50;94627.13;;;23.45;42.33
10079;BME280;5078;42.544;22.966;2022-10-23T09:17:16;94638.22;;;23.96;41.73
10079;BME280;5078;42.544;22.966;2022-10-23T09:19:46;94626.75;;;23.65;42.18
10079;BME280;5078;42.544;22.966;2022-10-23T09:22:13;94633.13;;;23.47;42.60
10079;BME280;5078;42.544;22.966;2022-10-23T09:24:41;94641.81;;;23.85;41.72
10079;BME280;5078;42.544;22.966;2022-10-23T09:27:13;94640.97;;;24.25;41.49
10079;BME280;5078;42.544;22.966;2022-10-23T09:29:48;94632.88;;;24.13;41.65
10079;BME280;5078;42.544;22.966;2022-10-23T09:32:15;94634.34;;;24.04;41.87
10079;BME280;5078;42.544;22.966;2022-10-23T09:34:50;94636.88;;;23.82;42.42
10079;BME280;5078;42.544;22.966;2022-10-23T09:37:21;94630.25;;;24.01;42.08
10079;BME280;5078;42.544;22.966;2022-10-23T09:39:48;94635.13;;;23.64;43.51
10079;BME280;5078;42.544;22.966;2022-10-23T09:42:31;94635.97;;;24.05;42.68
10079;BME280;5078;42.544;22.966;2022-10-23T09:44:59;94633.94;;;24.24;41.87
10079;BME280;5078;42.544;22.966;2022-10-23T09:47:26;94630.53;;;24.45;40.72
10079;BME280;5078;42.544;22.966;2022-10-23T09:49:54;94635.13;;;24.45;40.98
10079;BME280;5078;42.544;22.966;2022-10-23T09:52:24;94633.22;;;24.57;41.07
10079;BME280;5078;42.544;22.966;2022-10-23T09:54:57;94631.41;;;24.63;40.91
10079;BME280;5078;42.544;22.966;2022-10-23T09:57:28;94630.47;;;24.28;41.09
10079;BME280;5078;42.544;22.966;2022-10-23T09:59:59;94621.56;;;23.76;42.10
10079;BME280;5078;42.544;22.966;2022-10-23T10:02:28;94618.66;;;23.30;42.64
10079;BME280;5078;42.544;22.966;2022-10-23T10:04:56;94603.09;;;23.61;42.47
10079;BME280;5078;42.544;22.966;2022-10-23T10:07:26;94616.81;;;23.19;42.48
10079;BME280;5078;42.544;22.966;2022-10-23T10:09:54;94606.06;;;23.36;42.63
10079;BME280;5078;42.544;22.966;2022-10-23T10:12:35;94611.91;;;23.80;42.63
10079;BME280;5078;42.544;22.966;2022-10-23T10:15:11;94590.84;;;23.82;41.32
10079;BME280;5078;42.544;22.966;2022-10-23T10:17:44;94608.00;;;23.87;40.98
10079;BME280;5078;42.544;22.966;2022-10-23T10:20:54;94594.06;;;23.96;40.96
10079;BME280;5078;42.544;22.966;2022-10-23T10:23:34;94595.06;;;23.66;41.85
10079;BME280;5078;42.544;22.966;2022-10-23T10:26:13;94598.41;;;23.44;42.01
10079;BME280;5078;42.544;22.966;2022-10-23T10:28:53;94589.94;;;22.82;43.67
10079;BME280;5078;42.544;22.966;2022-10-23T10:31:49;94581.88;;;23.69;41.65
10079;BME280;5078;42.544;22.966;2022-10-23T10:34:27;94581.75;;;23.76;40.78
10079;BME280;5078;42.544;22.966;2022-10-23T10:37:11;94584.00;;;23.79;40.84
10079;BME280;5078;42.544;22.966;2022-10-23T10:39:46;94581.41;;;24.13;40.08
10079;BME280;5078;42.544;22.966;2022-10-23T10:45:30;94583.59;;;23.99;40.01
10079;BME280;5078;42.544;22.966;2022-10-23T10:48:22;94585.59;;;24.21;39.44
10079;BME280;5078;42.544;22.966;2022-10-23T10:50:58;94575.72;;;24.26;39.30
10079;BME280;5078;42.544;22.966;2022-10-23T10:53:46;94568.66;;;24.14;39.11
10079;BME280;5078;42.544;22.966;2022-10-23T10:56:19;94571.44;;;24.02;39.54
10079;BME280;5078;42.544;22.966;2022-10-23T10:58:51;94571.59;;;23.95;39.07
10079;BME280;5078;42.544;22.966;2022-10-23T11:01:21;94572.47;;;23.72;39.42
10079;BME280;5078;42.544;22.966;2022-10-23T11:03:54;94563.50;;;23.83;38.73
10079;BME280;5078;42.544;22.966;2022-10-23T11:06:26;94565.97;;;23.21;39.74
10079;BME280;5078;42.544;22.966;2022-10-23T11:08:54;94565.78;;;23.51;40.07
10079;BME280;5078;42.544;22.966;2022-10-23T11:11:23;94561.00;;;23.41;39.57
10079;BME280;5078;42.544;22.966;2022-10-23T11:13:52;94559.25;;;23.35;39.34
10079;BME280;5078;42.544;22.966;2022-10-23T11:16:23;94567.13;;;23.25;38.52
10079;BME280;5078;42.544;22.966;2022-10-23T11:19:02;94567.47;;;23.29;38.66
10079;BME280;5078;42.544;22.966;2022-10-23T11:21:34;94557.94;;;23.50;38.85
10079;BME280;5078;42.544;22.966;2022-10-23T11:24:49;94551.72;;;23.14;39.03
10079;BME280;5078;42.544;22.966;2022-10-23T11:27:27;94548.78;;;23.39;38.13
10079;BME280;5078;42.544;22.966;2022-10-23T11:30:18;94543.88;;;23.64;38.11
10079;BME280;5078;42.544;22.966;2022-10-23T11:36:16;94532.75;;;23.37;38.10
10079;BME280;5078;42.544;22.966;2022-10-23T11:38:45;94525.44;;;23.50;37.75
10079;BME280;5078;42.544;22.966;2022-10-23T11:41:18;94531.66;;;23.50;37.61
10079;BME280;5078;42.544;22.966;2022-10-23T11:43:48;94534.19;;;23.28;37.87
10079;BME280;5078;42.544;22.966;2022-10-23T11:49:22;94523.31;;;22.99;37.90
10079;BME280;5078;42.544;22.966;2022-10-23T11:54:47;94512.22;;;22.66;38.50
10079;BME280;5078;42.544;22.966;2022-10-23T11:57:14;94516.19;;;22.51;38.41
10079;BME280;5078;42.544;22.966;2022-10-23T11:59:51;94512.81;;;22.44;38.48
10079;BME280;5078;42.544;22.966;2022-10-23T12:02:25;94510.06;;;22.32;38.55
10079;BME280;5078;42.544;22.966;2022-10-23T12:04:53;94503.94;;;22.25;38.48
10079;BME280;5078;42.544;22.966;2022-10-23T12:07:25;94505.13;;;22.41;38.79
10079;BME280;5078;42.544;22.966;2022-10-23T12:12:37;94504.09;;;22.42;38.05
10079;BME280;5078;42.544;22.966;2022-10-23T12:15:22;94488.25;;;22.57;38.15
10079;BME280;5078;42.544;22.966;2022-10-23T12:17:51;94499.84;;;22.46;36.93
10079;BME280;5078;42.544;22.966;2022-10-23T12:20:47;94492.94;;;22.50;37.10
10079;BME280;5078;42.544;22.966;2022-10-23T12:29:33;94489.56;;;22.13;36.77
10079;BME280;5078;42.544;22.966;2022-10-23T12:32:18;94486.94;;;22.25;37.42
10079;BME280;5078;42.544;22.966;2022-10-23T12:35:06;94497.72;;;22.36;37.13
10079;BME280;5078;42.544;22.966;2022-10-23T12:37:54;94491.84;;;22.28;38.20
10079;BME280;5078;42.544;22.966;2022-10-23T12:40:23;94487.41;;;22.22;36.67
10079;BME280;5078;42.544;22.966;2022-10-23T12:42:57;94485.91;;;22.07;37.25
10079;BME280;5078;42.544;22.966;2022-10-23T12:45:26;94489.97;;;22.28;37.38
10079;BME280;5078;42.544;22.966;2022-10-23T12:47:54;94491.84;;;22.28;37.38
10079;BME280;5078;42.544;22.966;2022-10-23T12:50:23;94486.56;;;22.33;36.82
10079;BME280;5078;42.544;22.966;2022-10-23T12:52:52;94484.00;;;22.50;37.12
10079;BME280;5078;42.544;22.966;2022-10-23T12:55:19;94480.72;;;22.48;36.97
10079;BME280;5078;42.544;22.966;2022-10-23T12:57:47;94488.56;;;22.61;35.54
10079;BME280;5078;42.544;22.966;2022-10-23T13:00:17;94489.28;;;22.80;35.12
10079;BME280;5078;42.544;22.966;2022-10-23T13:02:44;94486.47;;;22.63;35.23
10079;BME280;5078;42.544;22.966;2022-10-23T13:05:13;94481.91;;;22.52;36.34
10079;BME280;5078;42.544;22.966;2022-10-23T13:07:44;94489.06;;;22.34;36.86
10079;BME280;5078;42.544;22.966;2022-10-23T13:10:13;94483.31;;;22.01;37.78
10079;BME280;5078;42.544;22.966;2022-10-23T13:12:42;94485.09;;;22.18;37.83
10079;BME280;5078;42.544;22.966;2022-10-23T13:15:17;94484.50;;;22.05;37.35
10079;BME280;5078;42.544;22.966;2022-10-23T13:18:03;94482.53;;;22.12;37.69
10079;BME280;5078;42.544;22.966;2022-10-23T13:20:32;94491.13;;;22.21;37.29
10079;BME280;5078;42.544;22.966;2022-10-23T13:23:08;94487.81;;;22.07;34.83
10079;BME280;5078;42.544;22.966;2022-10-23T13:25:37;94485.53;;;22.04;36.39
10079;BME280;5078;42.544;22.966;2022-10-23T13:28:17;94488.03;;;22.05;36.78
10079;BME280;5078;42.544;22.966;2022-10-23T13:31:06;94482.72;;;21.98;36.60
10079;BME280;5078;42.544;22.966;2022-10-23T13:33:36;94491.88;;;21.97;35.19
10079;BME280;5078;42.544;22.966;2022-10-23T13:36:05;94486.34;;;21.92;34.96
10079;BME280;5078;42.544;22.966;2022-10-23T13:38:59;94478.84;;;22.06;35.09
10079;BME280;5078;42.544;22.966;2022-10-23T13:41:28;94490.84;;;22.10;35.54
10079;BME280;5078;42.544;22.966;2022-10-23T13:43:55;94485.53;;;22.04;36.42
10079;BME280;5078;42.544;22.966;2022-10-23T13:46:23;94494.03;;;22.07;36.58